sensor_id;sensor_type;location;lat;lon;timestamp;pressure;altitude;pressure_sealevel;temperature;humidity
71770;BME280;59605;52.122;5.420;2022-10-23T00:01:20;101513.69;;;19.80;59.05
71770;BME280;59605;52.122;5.420;2022-10-23T00:03:53;101505.84;;;19.80;58.94
71770;BME280;59605;52.122;5.420;2022-10-23T00:06:20;101511.06;;;19.80;59.00
71770;BME280;59605;52.122;5.420;2022-10-23T00:08:47;101501.59;;;19.79;59.13
71770;BME280;59605;52.122;5.420;2022-10-23T00:11:17;101506.81;;;19.79;59.12
71770;BME280;59605;52.122;5.420;2022-10-23T00:13:45;101510.31;;;19.78;58.66
71770;BME280;59605;52.122;5.420;2022-10-23T00:16:12;101510.31;;;19.78;58.75
71770;BME280;59605;52.122;5.420;2022-10-23T00:18:38;101519.94;;;19.77;58.71
71770;BME280;59605;52.122;5.420;2022-10-23T00:21:07;101517.31;;;19.77;59.11
71770;BME280;59605;52.122;5.420;2022-10-23T00:23:34;101513.03;;;19.76;58.67
71770;BME280;59605;52.122;5.420;2022-10-23T00:26:01;101513.03;;;19.76;58.84
71770;BME280;59605;52.122;5.420;2022-10-23T00:28:27;101512.19;;;19.76;58.84
71770;BME280;59605;52.122;5.420;2022-10-23T00:30:54;101513.03;;;19.76;58.66
71770;BME280;59605;52.122;5.420;2022-10-23T00:33:20;101510.41;;;19.76;58.57
71770;BME280;59605;52.122;5.420;2022-10-23T00:35:46;101511.34;;;19.75;58.89
71770;BME280;59605;52.122;5.420;2022-10-23T00:38:13;101505.19;;;19.76;58.73
71770;BME280;59605;52.122;5.420;2022-10-23T00:40:39;101505.31;;;19.75;58.52
71770;BME280;59605;52.122;5.420;2022-10-23T00:43:17;101499.22;;;19.74;58.68
71770;BME280;59605;52.122;5.420;2022-10-23T00:45:44;101499.22;;;19.74;58.79
71770;BME280;59605;52.122;5.420;2022-10-23T00:48:11;101502.69;;;19.75;58.79
71770;BME280;59605;52.122;5.420;2022-10-23T00:50:39;101498.41;;;19.74;58.41
71770;BME280;59605;52.122;5.420;2022-10-23T00:53:07;101495.78;;;19.74;58.73
71770;BME280;59605;52.122;5.420;2022-10-23T00:55:35;101493.28;;;19.72;58.88
71770;BME280;59605;52.122;5.420;2022-10-23T00:58:03;101489.75;;;19.73;58.93
71770;BME280;59605;52.122;5.420;2022-10-23T01:00:49;101495.91;;;19.72;58.83
71770;BME280;59605;52.122;5.420;2022-10-23T01:03:17;101502.78;;;19.73;58.74
71770;BME280;59605;52.122;5.420;2022-10-23T01:05:46;101490.69;;;19.72;58.72
71770;BME280;59605;52.122;5.420;2022-10-23T01:08:56;101492.38;;;19.73;58.94
71770;BME280;59605;52.122;5.420;2022-10-23T01:11:38;101492.47;;;19.71;58.74
71770;BME280;59605;52.122;5.420;2022-10-23T01:14:12;101504.66;;;19.71;58.76
71770;BME280;59605;52.122;5.420;2022-10-23T01:19:26;101496.94;;;19.69;58.42
71770;BME280;59605;52.122;5.420;2022-10-23T01:27:38;101492.47;;;19.71;58.72
71770;BME280;59605;52.122;5.420;2022-10-23T01:30:08;101487.34;;;19.70;58.29
71770;BME280;59605;52.122;5.420;2022-10-23T01:32:48;101483.88;;;19.69;58.75
71770;BME280;59605;52.122;5.420;2022-10-23T01:35:27;101482.13;;;19.70;58.68
71770;BME280;59605;52.122;5.420;2022-10-23T01:38:00;101480.44;;;19.69;58.44
71770;BME280;59605;52.122;5.420;2022-10-23T01:40:33;101477.03;;;19.68;58.44
71770;BME280;59605;52.122;5.420;2022-10-23T01:43:09;101475.25;;;19.69;58.57
71770;BME280;59605;52.122;5.420;2022-10-23T01:45:44;101475.25;;;19.69;58.62
71770;BME280;59605;52.122;5.420;2022-10-23T01:48:18;101476.91;;;19.70;58.72
71770;BME280;59605;52.122;5.420;2022-10-23T01:50:47;101474.41;;;19.68;58.48
71770;BME280;59605;52.122;5.420;2022-10-23T01:53:17;101467.41;;;19.69;58.36
71770;BME280;59605;52.122;5.420;2022-10-23T01:55:45;101470.03;;;19.69;58.56
71770;BME280;59605;52.122;5.420;2022-10-23T01:58:13;101458.88;;;19.67;58.76
71770;BME280;59605;52.122;5.420;2022-10-23T02:00:43;101457.09;;;19.67;58.39
71770;BME280;59605;52.122;5.420;2022-10-23T02:03:12;101451.03;;;19.67;58.74
71770;BME280;59605;52.122;5.420;2022-10-23T02:05:41;101456.25;;;19.67;58.66
71770;BME280;59605;52.122;5.420;2022-10-23T02:08:08;101444.88;;;19.68;58.65
71770;BME280;59605;52.122;5.420;2022-10-23T02:10:52;101437.16;;;19.66;58.30
71770;BME280;59605;52.122;5.420;2022-10-23T02:13:54;101434.53;;;19.66;58.34
71770;BME280;59605;52.122;5.420;2022-10-23T02:16:31;101438.94;;;19.66;58.61
71770;BME280;59605;52.122;5.420;2022-10-23T02:19:23;101433.72;;;19.66;58.53
71770;BME280;59605;52.122;5.420;2022-10-23T02:22:05;101434.53;;;19.66;58.68
71770;BME280;59605;52.122;5.420;2022-10-23T02:24:55;101427.66;;;19.65;58.73
71770;BME280;59605;52.122;5.420;2022-10-23T02:27:29;101422.44;;;19.65;58.32
71770;BME280;59605;52.122;5.420;2022-10-23T02:30:08;101420.78;;;19.64;58.47
71770;BME280;59605;52.122;5.420;2022-10-23T02:32:39;101402.44;;;19.66;58.39
71770;BME280;59605;52.122;5.420;2022-10-23T02:35:07;101405.97;;;19.65;58.25
71770;BME280;59605;52.122;5.420;2022-10-23T02:37:33;101400.75;;;19.65;58.39
71770;BME280;59605;52.122;5.420;2022-10-23T02:40:00;101406.88;;;19.64;58.49
71770;BME280;59605;52.122;5.420;2022-10-23T02:42:41;101405.97;;;19.65;58.40
71770;BME280;59605;52.122;5.420;2022-10-23T02:45:29;101414.72;;;19.64;58.72
71770;BME280;59605;52.122;5.420;2022-10-23T02:53:21;101400.84;;;19.63;58.56
71770;BME280;59605;52.122;5.420;2022-10-23T02:56:02;101402.63;;;19.63;58.24
71770;BME280;59605;52.122;5.420;2022-10-23T02:58:40;101407.84;;;19.63;58.42
71770;BME280;59605;52.122;5.420;2022-10-23T03:01:13;101405.25;;;19.63;58.52
71770;BME280;59605;52.122;5.420;2022-10-23T03:03:45;101401.78;;;19.62;58.41
71770;BME280;59605;52.122;5.420;2022-10-23T03:06:13;101398.34;;;19.62;58.66
71770;BME280;59605;52.122;5.420;2022-10-23T03:08:52;101385.31;;;19.62;58.46
71770;BME280;59605;52.122;5.420;2022-10-23T03:11:19;101382.69;;;19.62;58.24
71770;BME280;59605;52.122;5.420;2022-10-23T03:13:46;101386.13;;;19.62;58.25
71770;BME280;59605;52.122;5.420;2022-10-23T03:16:12;101385.31;;;19.62;58.37
71770;BME280;59605;52.122;5.420;2022-10-23T03:18:38;101384.47;;;19.61;58.40
71770;BME280;59605;52.122;5.420;2022-10-23T03:21:05;101374.06;;;19.61;58.44
71770;BME280;59605;52.122;5.420;2022-10-23T03:23:31;101372.28;;;19.62;58.59
71770;BME280;59605;52.122;5.420;2022-10-23T03:25:57;101365.38;;;19.61;58.49
71770;BME280;59605;52.122;5.420;2022-10-23T03:28:24;101371.44;;;19.61;58.43
71770;BME280;59605;52.122;5.420;2022-10-23T03:30:50;101367.06;;;19.62;58.45
71770;BME280;59605;52.122;5.420;2022-10-23T03:33:17;101361.94;;;19.60;58.47
71770;BME280;59605;52.122;5.420;2022-10-23T03:35:43;101366.34;;;19.60;58.37
71770;BME280;59605;52.122;5.420;2022-10-23T03:38:10;101357.66;;;19.59;58.35
71770;BME280;59605;52.122;5.420;2022-10-23T03:40:36;101357.56;;;19.61;58.43
71770;BME280;59605;52.122;5.420;2022-10-23T03:43:05;101356.72;;;19.60;58.46
71770;BME280;59605;52.122;5.420;2022-10-23T03:45:31;101352.44;;;19.59;58.37
71770;BME280;59605;52.122;5.420;2022-10-23T03:47:57;101355.91;;;19.60;58.56
71770;BME280;59605;52.122;5.420;2022-10-23T03:50:24;101353.28;;;19.60;58.52
71770;BME280;59605;52.122;5.420;2022-10-23T03:52:50;101349.00;;;19.59;58.42
71770;BME280;59605;52.122;5.420;2022-10-23T03:55:17;101335.25;;;19.57;58.45
71770;BME280;59605;52.122;5.420;2022-10-23T03:57:43;101335.16;;;19.58;58.27
71770;BME280;59605;52.122;5.420;2022-10-23T04:00:10;101337.75;;;19.58;58.29
71770;BME280;59605;52.122;5.420;2022-10-23T04:02:36;101333.38;;;19.59;58.61
71770;BME280;59605;52.122;5.420;2022-10-23T04:05:03;101324.72;;;19.58;58.50
71770;BME280;59605;52.122;5.420;2022-10-23T04:07:29;101316.03;;;19.58;58.66
71770;BME280;59605;52.122;5.420;2022-10-23T04:09:56;101310.00;;;19.57;58.21
71770;BME280;59605;52.122;5.420;2022-10-23T04:12:22;101304.78;;;19.57;58.16
71770;BME280;59605;52.122;5.420;2022-10-23T04:14:48;101310.94;;;19.56;58.16
71770;BME280;59605;52.122;5.420;2022-10-23T04:17:15;101303.97;;;19.57;58.20
71770;BME280;59605;52.122;5.420;2022-10-23T04:19:41;101304.78;;;19.57;58.55
71770;BME280;59605;52.122;5.420;2022-10-23T04:22:07;101300.50;;;19.56;58.52
71770;BME280;59605;52.122;5.420;2022-10-23T04:24:34;101295.28;;;19.56;58.50
71770;BME280;59605;52.122;5.420;2022-10-23T04:27:00;101289.13;;;19.57;58.55
71770;BME280;59605;52.122;5.420;2022-10-23T04:29:27;101291.84;;;19.56;58.39
71770;BME280;59605;52.122;5.420;2022-10-23T04:31:56;101293.53;;;19.57;58.17
71770;BME280;59605;52.122;5.420;2022-10-23T04:34:23;101286.63;;;19.56;58.59
71770;BME280;59605;52.122;5.420;2022-10-23T04:36:49;101277.97;;;19.55;58.59
71770;BME280;59605;52.122;5.420;2022-10-23T04:39:15;101282.25;;;19.56;58.32
71770;BME280;59605;52.122;5.420;2022-10-23T04:41:42;101282.25;;;19.56;58.44
71770;BME280;59605;52.122;5.420;2022-10-23T04:44:08;101276.22;;;19.56;58.31
71770;BME280;59605;52.122;5.420;2022-10-23T04:46:34;101275.34;;;19.55;58.44
71770;BME280;59605;52.122;5.420;2022-10-23T04:49:01;101273.72;;;19.54;58.09
71770;BME280;59605;52.122;5.420;2022-10-23T04:51:27;101273.72;;;19.54;58.32
71770;BME280;59605;52.122;5.420;2022-10-23T04:53:53;101274.53;;;19.54;58.06
71770;BME280;59605;52.122;5.420;2022-10-23T04:56:20;101266.00;;;19.52;58.28
71770;BME280;59605;52.122;5.420;2022-10-23T04:58:46;101260.66;;;19.54;58.07
71770;BME280;59605;52.122;5.420;2022-10-23T05:01:13;101265.03;;;19.53;58.29
71770;BME280;59605;52.122;5.420;2022-10-23T05:03:39;101264.22;;;19.53;58.42
71770;BME280;59605;52.122;5.420;2022-10-23T05:06:06;101263.28;;;19.54;58.35
71770;BME280;59605;52.122;5.420;2022-10-23T05:08:32;101260.66;;;19.54;58.45
71770;BME280;59605;52.122;5.420;2022-10-23T05:11:01;101250.34;;;19.52;58.30
71770;BME280;59605;52.122;5.420;2022-10-23T05:13:27;101258.16;;;19.52;58.36
71770;BME280;59605;52.122;5.420;2022-10-23T05:15:54;101260.78;;;19.52;58.25
71770;BME280;59605;52.122;5.420;2022-10-23T05:18:26;101259.00;;;19.53;58.55
71770;BME280;59605;52.122;5.420;2022-10-23T05:20:59;101245.25;;;19.51;58.25
71770;BME280;59605;52.122;5.420;2022-10-23T05:23:29;101256.50;;;19.51;58.17
71770;BME280;59605;52.122;5.420;2022-10-23T05:25:58;101261.59;;;19.53;58.33
71770;BME280;59605;52.122;5.420;2022-10-23T05:28:25;101258.28;;;19.51;58.31
71770;BME280;59605;52.122;5.420;2022-10-23T05:30:51;101263.50;;;19.51;58.06
71770;BME280;59605;52.122;5.420;2022-10-23T05:33:17;101269.44;;;19.53;58.19
71770;BME280;59605;52.122;5.420;2022-10-23T05:35:44;101258.28;;;19.51;58.35
71770;BME280;59605;52.122;5.420;2022-10-23T05:38:12;101257.31;;;19.52;58.14
71770;BME280;59605;52.122;5.420;2022-10-23T05:40:39;101257.31;;;19.52;58.49
71770;BME280;59605;52.122;5.420;2022-10-23T05:43:05;101250.47;;;19.51;58.15
71770;BME280;59605;52.122;5.420;2022-10-23T05:45:32;101248.69;;;19.51;58.37
71770;BME280;59605;52.122;5.420;2022-10-23T05:47:58;101253.06;;;19.51;58.54
71770;BME280;59605;52.122;5.420;2022-10-23T05:50:42;101251.38;;;19.50;58.46
71770;BME280;59605;52.122;5.420;2022-10-23T05:53:11;101247.84;;;19.51;58.25
71770;BME280;59605;52.122;5.420;2022-10-23T05:55:37;101248.78;;;19.50;58.11
71770;BME280;59605;52.122;5.420;2022-10-23T05:58:04;101241.78;;;19.50;58.30
71770;BME280;59605;52.122;5.420;2022-10-23T06:00:31;101240.03;;;19.51;58.26
71770;BME280;59605;52.122;5.420;2022-10-23T06:03:00;101229.72;;;19.49;58.53
71770;BME280;59605;52.122;5.420;2022-10-23T06:05:27;101221.88;;;19.49;58.57
71770;BME280;59605;52.122;5.420;2022-10-23T06:07:59;101231.47;;;19.49;58.38
71770;BME280;59605;52.122;5.420;2022-10-23T06:10:26;101229.72;;;19.49;58.10
71770;BME280;59605;52.122;5.420;2022-10-23T06:12:52;101232.31;;;19.49;58.30
71770;BME280;59605;52.122;5.420;2022-10-23T06:15:18;101218.53;;;19.47;58.20
71770;BME280;59605;52.122;5.420;2022-10-23T06:17:45;101220.22;;;19.48;58.35
71770;BME280;59605;52.122;5.420;2022-10-23T06:20:11;101225.44;;;19.48;58.53
71770;BME280;59605;52.122;5.420;2022-10-23T06:22:38;101214.06;;;19.49;58.61
71770;BME280;59605;52.122;5.420;2022-10-23T06:25:05;101207.16;;;19.48;58.10
71770;BME280;59605;52.122;5.420;2022-10-23T06:27:31;101206.34;;;19.48;58.33
71770;BME280;59605;52.122;5.420;2022-10-23T06:29:58;101204.56;;;19.48;58.49
71770;BME280;59605;52.122;5.420;2022-10-23T06:32:24;101198.53;;;19.48;58.33
71770;BME280;59605;52.122;5.420;2022-10-23T06:34:50;101207.16;;;19.48;58.33
71770;BME280;59605;52.122;5.420;2022-10-23T06:37:17;101202.88;;;19.47;58.16
71770;BME280;59605;52.122;5.420;2022-10-23T06:39:43;101192.47;;;19.47;58.38
71770;BME280;59605;52.122;5.420;2022-10-23T06:42:09;101196.75;;;19.48;58.13
71770;BME280;59605;52.122;5.420;2022-10-23T06:44:36;101199.47;;;19.47;58.50
71770;BME280;59605;52.122;5.420;2022-10-23T06:47:02;101196.84;;;19.47;58.19
71770;BME280;59605;52.122;5.420;2022-10-23T06:49:29;101189.03;;;19.47;58.24
71770;BME280;59605;52.122;5.420;2022-10-23T06:51:55;101182.03;;;19.47;58.22
71770;BME280;59605;52.122;5.420;2022-10-23T06:54:21;101182.13;;;19.46;58.18
71770;BME280;59605;52.122;5.420;2022-10-23T06:56:48;101182.03;;;19.47;58.19
71770;BME280;59605;52.122;5.420;2022-10-23T06:59:14;101172.53;;;19.46;58.53
71770;BME280;59605;52.122;5.420;2022-10-23T07:01:41;101176.94;;;19.46;58.45
71770;BME280;59605;52.122;5.420;2022-10-23T07:04:07;101174.31;;;19.46;58.25
71770;BME280;59605;52.122;5.420;2022-10-23T07:06:34;101169.09;;;19.46;58.55
71770;BME280;59605;52.122;5.420;2022-10-23T07:09:00;101165.69;;;19.45;58.35
71770;BME280;59605;52.122;5.420;2022-10-23T07:11:26;101165.69;;;19.45;58.33
71770;BME280;59605;52.122;5.420;2022-10-23T07:13:53;101176.09;;;19.45;58.37
71770;BME280;59605;52.122;5.420;2022-10-23T07:16:20;101177.84;;;19.45;58.55
71770;BME280;59605;52.122;5.420;2022-10-23T07:18:48;101174.31;;;19.46;58.41
71770;BME280;59605;52.122;5.420;2022-10-23T07:21:15;101181.31;;;19.45;58.63
71770;BME280;59605;52.122;5.420;2022-10-23T07:23:42;101176.09;;;19.45;58.14
71770;BME280;59605;52.122;5.420;2022-10-23T07:26:11;101180.47;;;19.45;58.24
71770;BME280;59605;52.122;5.420;2022-10-23T07:28:40;101181.31;;;19.45;58.66
71770;BME280;59605;52.122;5.420;2022-10-23T07:31:07;101170.91;;;19.45;58.43
71770;BME280;59605;52.122;5.420;2022-10-23T07:33:33;101165.69;;;19.45;58.58
71770;BME280;59605;52.122;5.420;2022-10-23T07:35:59;101169.22;;;19.44;58.15
71770;BME280;59605;52.122;5.420;2022-10-23T07:38:26;101170.91;;;19.45;58.19
71770;BME280;59605;52.122;5.420;2022-10-23T07:40:55;101159.63;;;19.45;58.59
71770;BME280;59605;52.122;5.420;2022-10-23T07:43:22;101168.28;;;19.45;58.34
71770;BME280;59605;52.122;5.420;2022-10-23T07:45:51;101167.44;;;19.45;58.55
71770;BME280;59605;52.122;5.420;2022-10-23T07:48:18;101163.06;;;19.45;58.58
71770;BME280;59605;52.122;5.420;2022-10-23T07:50:46;101168.28;;;19.45;58.57
71770;BME280;59605;52.122;5.420;2022-10-23T07:53:17;101156.19;;;19.44;58.72
71770;BME280;59605;52.122;5.420;2022-10-23T07:55:58;101156.19;;;19.44;58.65
71770;BME280;59605;52.122;5.420;2022-10-23T07:58:26;101153.47;;;19.46;58.34
71770;BME280;59605;52.122;5.420;2022-10-23T08:01:00;101150.88;;;19.46;58.60
71770;BME280;59605;52.122;5.420;2022-10-23T08:03:29;101139.63;;;19.45;58.38
71770;BME280;59605;52.122;5.420;2022-10-23T08:05:56;101150.03;;;19.45;58.67
71770;BME280;59605;52.122;5.420;2022-10-23T08:08:23;101147.44;;;19.45;58.39
71770;BME280;59605;52.122;5.420;2022-10-23T08:10:52;101131.78;;;19.45;58.68
71770;BME280;59605;52.122;5.420;2022-10-23T08:13:19;101137.00;;;19.45;58.61
71770;BME280;59605;52.122;5.420;2022-10-23T08:15:48;101135.31;;;19.44;58.86
71770;BME280;59605;52.122;5.420;2022-10-23T08:18:14;101135.31;;;19.44;58.71
71770;BME280;59605;52.122;5.420;2022-10-23T08:20:42;101129.19;;;19.45;58.73
71770;BME280;59605;52.122;5.420;2022-10-23T08:23:09;101130.00;;;19.46;58.86
71770;BME280;59605;52.122;5.420;2022-10-23T08:25:38;101133.44;;;19.46;58.52
71770;BME280;59605;52.122;5.420;2022-10-23T08:28:06;101130.94;;;19.45;58.72
71770;BME280;59605;52.122;5.420;2022-10-23T08:30:33;101131.78;;;19.45;58.50
71770;BME280;59605;52.122;5.420;2022-10-23T08:33:02;101130.00;;;19.46;58.75
71770;BME280;59605;52.122;5.420;2022-10-23T08:35:28;101123.97;;;19.45;58.45
71770;BME280;59605;52.122;5.420;2022-10-23T08:37:55;101118.75;;;19.45;58.76
71770;BME280;59605;52.122;5.420;2022-10-23T08:40:23;101116.16;;;19.45;58.90
71770;BME280;59605;52.122;5.420;2022-10-23T08:43:18;101113.53;;;19.45;58.56
71770;BME280;59605;52.122;5.420;2022-10-23T08:46:03;101104.88;;;19.45;58.57
71770;BME280;59605;52.122;5.420;2022-10-23T08:48:41;101097.91;;;19.45;58.87
71770;BME280;59605;52.122;5.420;2022-10-23T08:51:21;101097.06;;;19.45;58.59
71770;BME280;59605;52.122;5.420;2022-10-23T08:56:41;101081.41;;;19.45;58.56
71770;BME280;59605;52.122;5.420;2022-10-23T09:02:20;101088.41;;;19.44;58.91
71770;BME280;59605;52.122;5.420;2022-10-23T09:04:51;101087.59;;;19.44;58.67
71770;BME280;59605;52.122;5.420;2022-10-23T09:07:29;101083.91;;;19.46;58.85
71770;BME280;59605;52.122;5.420;2022-10-23T09:10:20;101066.63;;;19.45;58.65
71770;BME280;59605;52.122;5.420;2022-10-23T09:12:50;101064.00;;;19.45;58.72
71770;BME280;59605;52.122;5.420;2022-10-23T09:15:42;101061.41;;;19.45;58.95
71770;BME280;59605;52.122;5.420;2022-10-23T09:18:13;101059.63;;;19.46;58.64
71770;BME280;59605;52.122;5.420;2022-10-23T09:20:43;101057.00;;;19.46;59.12
71770;BME280;59605;52.122;5.420;2022-10-23T09:23:21;101056.19;;;19.45;59.05
71770;BME280;59605;52.122;5.420;2022-10-23T09:25:49;101048.38;;;19.45;59.10
71770;BME280;59605;52.122;5.420;2022-10-23T09:28:23;101050.13;;;19.45;59.06
71770;BME280;59605;52.122;5.420;2022-10-23T09:30:50;101054.53;;;19.44;58.77
71770;BME280;59605;52.122;5.420;2022-10-23T09:35:54;101047.53;;;19.45;59.06
71770;BME280;59605;52.122;5.420;2022-10-23T09:38:33;101053.59;;;19.45;58.88
71770;BME280;59605;52.122;5.420;2022-10-23T09:44:20;101045.78;;;19.45;58.91
71770;BME280;59605;52.122;5.420;2022-10-23T09:46:52;101033.66;;;19.44;58.91
71770;BME280;59605;52.122;5.420;2022-10-23T09:49:27;101025.84;;;19.44;59.16
71770;BME280;59605;52.122;5.420;2022-10-23T09:54:31;101024.91;;;19.45;59.16
71770;BME280;59605;52.122;5.420;2022-10-23T09:57:05;101024.06;;;19.45;59.22
71770;BME280;59605;52.122;5.420;2022-10-23T09:59:39;101016.25;;;19.45;59.06
71770;BME280;59605;52.122;5.420;2022-10-23T10:02:26;101018.84;;;19.45;59.38
71770;BME280;59605;52.122;5.420;2022-10-23T10:04:53;101022.41;;;19.44;59.03
71770;BME280;59605;52.122;5.420;2022-10-23T10:07:22;101022.41;;;19.44;59.24
71770;BME280;59605;52.122;5.420;2022-10-23T10:09:49;101007.59;;;19.44;59.13
71770;BME280;59605;52.122;5.420;2022-10-23T10:15:16;101004.16;;;19.44;58.87
71770;BME280;59605;52.122;5.420;2022-10-23T10:21:09;101003.31;;;19.43;59.16
71770;BME280;59605;52.122;5.420;2022-10-23T10:24:18;100998.00;;;19.45;59.03
71770;BME280;59605;52.122;5.420;2022-10-23T10:26:52;100987.56;;;19.45;59.03
71770;BME280;59605;52.122;5.420;2022-10-23T10:32:22;100976.31;;;19.44;59.38
71770;BME280;59605;52.122;5.420;2022-10-23T10:37:50;100962.47;;;19.44;59.05
71770;BME280;59605;52.122;5.420;2022-10-23T10:40:30;100960.69;;;19.44;59.45
71770;BME280;59605;52.122;5.420;2022-10-23T10:45:48;100951.06;;;19.45;59.39
71770;BME280;59605;52.122;5.420;2022-10-23T10:51:06;100939.00;;;19.44;59.14
71770;BME280;59605;52.122;5.420;2022-10-23T10:53:46;100929.41;;;19.44;59.68
71770;BME280;59605;52.122;5.420;2022-10-23T10:56:17;100909.38;;;19.45;59.45
71770;BME280;59605;52.122;5.420;2022-10-23T10:58:54;100908.53;;;19.44;59.51
71770;BME280;59605;52.122;5.420;2022-10-23T11:01:27;100910.34;;;19.44;59.63
71770;BME280;59605;52.122;5.420;2022-10-23T11:04:10;100905.13;;;19.44;59.33
71770;BME280;59605;52.122;5.420;2022-10-23T11:06:40;100917.19;;;19.45;59.45
71770;BME280;59605;52.122;5.420;2022-10-23T11:09:16;100902.50;;;19.44;59.67
71770;BME280;59605;52.122;5.420;2022-10-23T11:11:47;100906.06;;;19.43;59.18
71770;BME280;59605;52.122;5.420;2022-10-23T11:14:15;100910.22;;;19.45;59.39
71770;BME280;59605;52.122;5.420;2022-10-23T11:16:46;100902.41;;;19.45;59.34
71770;BME280;59605;52.122;5.420;2022-10-23T11:19:29;100898.94;;;19.45;59.61
71770;BME280;59605;52.122;5.420;2022-10-23T11:22:06;100898.13;;;19.44;59.23
71770;BME280;59605;52.122;5.420;2022-10-23T11:24:41;100892.09;;;19.44;59.55
71770;BME280;59605;52.122;5.420;2022-10-23T11:30:07;100883.31;;;19.45;59.50
71770;BME280;59605;52.122;5.420;2022-10-23T11:35:40;100865.06;;;19.45;59.96
71770;BME280;59605;52.122;5.420;2022-10-23T11:40:57;100852.88;;;19.45;59.90
71770;BME280;59605;52.122;5.420;2022-10-23T11:43:33;100848.47;;;19.46;59.96
71770;BME280;59605;52.122;5.420;2022-10-23T11:46:27;100849.31;;;19.46;59.97
71770;BME280;59605;52.122;5.420;2022-10-23T11:48:55;100838.88;;;19.46;60.08
71770;BME280;59605;52.122;5.420;2022-10-23T11:51:39;100825.84;;;19.46;60.27
71770;BME280;59605;52.122;5.420;2022-10-23T11:56:50;100834.50;;;19.47;60.15
71770;BME280;59605;52.122;5.420;2022-10-23T11:59:29;100830.00;;;19.49;59.95
71770;BME280;59605;52.122;5.420;2022-10-23T12:02:03;100816.16;;;19.48;59.68
71770;BME280;59605;52.122;5.420;2022-10-23T12:04:48;100806.44;;;19.50;60.05
71770;BME280;59605;52.122;5.420;2022-10-23T12:07:27;100810.69;;;19.51;59.70
71770;BME280;59605;52.122;5.420;2022-10-23T12:09:57;100826.47;;;19.50;59.85
71770;BME280;59605;52.122;5.420;2022-10-23T12:12:35;100811.63;;;19.50;59.67
71770;BME280;59605;52.122;5.420;2022-10-23T12:17:38;100810.81;;;19.50;59.98
71770;BME280;59605;52.122;5.420;2022-10-23T12:25:18;100789.03;;;19.51;60.18
71770;BME280;59605;52.122;5.420;2022-10-23T12:28:07;100776.00;;;19.51;60.03
71770;BME280;59605;52.122;5.420;2022-10-23T12:33:33;100761.16;;;19.51;59.71
71770;BME280;59605;52.122;5.420;2022-10-23T12:36:27;100774.22;;;19.51;59.75
71770;BME280;59605;52.122;5.420;2022-10-23T12:39:00;100767.22;;;19.52;59.80
71770;BME280;59605;52.122;5.420;2022-10-23T12:41:28;100766.38;;;19.51;59.91
71770;BME280;59605;52.122;5.420;2022-10-23T12:44:01;100762.97;;;19.51;60.21
71770;BME280;59605;52.122;5.420;2022-10-23T12:46:29;100759.38;;;19.52;60.15
71770;BME280;59605;52.122;5.420;2022-10-23T12:48:58;100764.59;;;19.52;60.08
71770;BME280;59605;52.122;5.420;2022-10-23T12:51:33;100750.75;;;19.51;59.90
71770;BME280;59605;52.122;5.420;2022-10-23T12:54:01;100744.72;;;19.51;60.08
71770;BME280;59605;52.122;5.420;2022-10-23T12:56:33;100736.91;;;19.51;60.09
71770;BME280;59605;52.122;5.420;2022-10-23T12:59:00;100745.41;;;19.53;60.27
71770;BME280;59605;52.122;5.420;2022-10-23T13:01:30;100729.88;;;19.51;59.89
71770;BME280;59605;52.122;5.420;2022-10-23T13:06:37;100717.69;;;19.52;60.15
71770;BME280;59605;52.122;5.420;2022-10-23T13:09:09;100705.50;;;19.52;60.24
71770;BME280;59605;52.122;5.420;2022-10-23T13:11:41;100705.50;;;19.52;60.09
71770;BME280;59605;52.122;5.420;2022-10-23T13:14:12;100704.53;;;19.53;60.26
71770;BME280;59605;52.122;5.420;2022-10-23T13:16:39;100706.31;;;19.53;60.20
71770;BME280;59605;52.122;5.420;2022-10-23T13:19:05;100708.09;;;19.52;60.11
71770;BME280;59605;52.122;5.420;2022-10-23T13:21:31;100700.28;;;19.52;59.91
71770;BME280;59605;52.122;5.420;2022-10-23T13:23:58;100695.06;;;19.52;59.94
71770;BME280;59605;52.122;5.420;2022-10-23T13:26:34;100694.09;;;19.53;60.12
71770;BME280;59605;52.122;5.420;2022-10-23T13:29:34;100671.59;;;19.52;59.95
71770;BME280;59605;52.122;5.420;2022-10-23T13:32:10;100665.41;;;19.53;60.40
71770;BME280;59605;52.122;5.420;2022-10-23T13:34:37;100668.03;;;19.53;60.22
71770;BME280;59605;52.122;5.420;2022-10-23T13:37:24;100648.13;;;19.52;60.34
71770;BME280;59605;52.122;5.420;2022-10-23T13:40:06;100648.97;;;19.53;60.32
71770;BME280;59605;52.122;5.420;2022-10-23T13:42:35;100636.88;;;19.52;60.02
71770;BME280;59605;52.122;5.420;2022-10-23T13:45:01;100640.31;;;19.52;60.15
71770;BME280;59605;52.122;5.420;2022-10-23T13:47:28;100635.94;;;19.53;60.58
71770;BME280;59605;52.122;5.420;2022-10-23T13:49:54;100636.75;;;19.53;61.46
71770;BME280;59605;52.122;5.420;2022-10-23T13:52:21;100629.66;;;19.56;60.98
71770;BME280;59605;52.122;5.420;2022-10-23T13:54:49;100620.97;;;19.55;61.80
71770;BME280;59605;52.122;5.420;2022-10-23T13:57:15;100621.72;;;19.57;61.15
71770;BME280;59605;52.122;5.420;2022-10-23T13:59:42;100619.09;;;19.57;61.30
71770;BME280;59605;52.122;5.420;2022-10-23T14:02:19;100614.59;;;19.59;61.16
71770;BME280;59605;52.122;5.420;2022-10-23T14:04:47;100611.84;;;19.61;61.67
71770;BME280;59605;52.122;5.420;2022-10-23T14:07:14;100617.91;;;19.61;61.35
71770;BME280;59605;52.122;5.420;2022-10-23T14:09:40;100613.53;;;19.62;61.74
71770;BME280;59605;52.122;5.420;2022-10-23T14:12:07;100599.53;;;19.63;61.50
71770;BME280;59605;52.122;5.420;2022-10-23T14:14:33;100608.06;;;19.65;61.71
71770;BME280;59605;52.122;5.420;2022-10-23T14:17:00;100608.06;;;19.65;61.46
71770;BME280;59605;52.122;5.420;2022-10-23T14:19:26;100599.31;;;19.66;61.53